Time,TemperatureF,DewpointF,PressureIn,WindDirection,WindDirectionDegrees,WindSpeedMPH,WindSpeedGustMPH,Humidity,HourlyPrecipIn,Conditions,Clouds,dailyrainin,SoftwareType,DateUTC
2013-10-14 00:00:00,56.0,34.4,30.05,South,180,4.0,10.0,44,0.00,,,0.00,LWC V2.00 B2112,2013-10-14 07:00:00,
2013-10-14 00:10:00,55.7,33.5,30.05,South,180,3.0,9.0,43,0.00,,,0.00,LWC V2.00 B2112,2013-10-14 07:10:00,
2013-10-14 00:20:00,55.7,33.5,30.05,South,180,3.0,9.0,43,0.00,,,0.00,LWC V2.00 B2112,2013-10-14 07:20:00,
2013-10-14 00:30:00,55.7,33.5,30.05,South,180,3.0,9.0,43,0.00,,,0.00,LWC V2.00 B2112,2013-10-14 07:30:00,
2013-10-14 00:40:00,55.7,33.0,30.04,South,180,1.0,8.0,42,0.00,,,0.00,LWC V2.00 B2112,2013-10-14 07:40:00,
2013-10-14 00:50:00,55.7,33.0,30.04,South,180,1.0,8.0,42,0.00,,,0.00,LWC V2.00 B2112,2013-10-14 07:50:00,
2013-10-14 01:00:00,55.7,33.0,30.04,South,180,1.0,8.0,42,0.00,,,0.00,LWC V2.00 B2112,2013-10-14 08:00:00,
2013-10-14 01:10:00,53.1,32.9,30.05,South,180,0.0,7.0,46,0.00,,,0.00,LWC V2.00 B2112,2013-10-14 08:10:00,
2013-10-14 01:20:00,53.1,32.9,30.05,South,180,0.0,7.0,46,0.00,,,0.00,LWC V2.00 B2112,2013-10-14 08:20:00,
2013-10-14 01:30:00,53.1,32.9,30.05,South,180,0.0,7.0,46,0.00,,,0.00,LWC V2.00 B2112,2013-10-14 08:30:00,
2013-10-14 01:40:00,51.3,32.8,30.06,ENE,68,0.0,4.0,49,0.00,,,0.00,LWC V2.00 B2112,2013-10-14 08:40:00,
2013-10-14 01:50:00,51.3,32.8,30.06,ENE,68,0.0,4.0,49,0.00,,,0.00,LWC V2.00 B2112,2013-10-14 08:50:00,
2013-10-14 02:00:00,51.3,32.8,30.06,ENE,68,0.0,4.0,49,0.00,,,0.00,LWC V2.00 B2112,2013-10-14 09:00:00,
2013-10-14 02:10:00,52.0,31.3,30.06,SE,135,0.0,4.0,45,0.00,,,0.00,LWC V2.00 B2112,2013-10-14 09:10:00,
2013-10-14 02:20:00,52.0,31.3,30.06,SE,135,0.0,4.0,45,0.00,,,0.00,LWC V2.00 B2112,2013-10-14 09:20:00,
2013-10-14 02:30:00,52.0,31.3,30.06,SE,135,0.0,4.0,45,0.00,,,0.00,LWC V2.00 B2112,2013-10-14 09:30:00,
2013-10-14 02:40:00,52.9,31.6,30.05,South,180,1.0,7.0,44,0.00,,,0.00,LWC V2.00 B2112,2013-10-14 09:40:00,
2013-10-14 02:50:00,52.9,31.6,30.05,South,180,1.0,7.0,44,0.00,,,0.00,LWC V2.00 B2112,2013-10-14 09:50:00,
2013-10-14 03:00:00,52.9,31.6,30.05,South,180,1.0,7.0,44,0.00,,,0.00,LWC V2.00 B2112,2013-10-14 10:00:00,
2013-10-14 03:10:00,52.5,31.2,30.05,South,180,0.0,6.0,44,0.00,,,0.00,LWC V2.00 B2112,2013-10-14 10:10:00,
2013-10-14 03:20:00,52.5,31.2,30.05,South,180,0.0,6.0,44,0.00,,,0.00,LWC V2.00 B2112,2013-10-14 10:20:00,
2013-10-14 03:30:00,52.5,31.2,30.05,South,180,0.0,6.0,44,0.00,,,0.00,LWC V2.00 B2112,2013-10-14 10:30:00,
2013-10-14 03:40:00,50.0,30.6,30.05,North,0,0.0,2.0,47,0.00,,,0.00,LWC V2.00 B2112,2013-10-14 10:40:00,
2013-10-14 03:50:00,50.0,30.6,30.05,North,0,0.0,2.0,47,0.00,,,0.00,LWC V2.00 B2112,2013-10-14 10:50:00,
2013-10-14 04:00:00,50.0,30.6,30.05,North,0,0.0,2.0,47,0.00,,,0.00,LWC V2.00 B2112,2013-10-14 11:00:00,
2013-10-14 04:10:00,48.8,30.0,30.05,North,0,0.0,1.0,48,0.00,,,0.00,LWC V2.00 B2112,2013-10-14 11:10:00,
2013-10-14 04:20:00,48.8,30.0,30.05,North,0,0.0,1.0,48,0.00,,,0.00,LWC V2.00 B2112,2013-10-14 11:20:00,
2013-10-14 04:30:00,48.8,30.0,30.05,North,0,0.0,1.0,48,0.00,,,0.00,LWC V2.00 B2112,2013-10-14 11:30:00,
2013-10-14 04:40:00,48.5,29.7,30.05,North,0,0.0,0.0,48,0.00,,,0.00,LWC V2.00 B2112,2013-10-14 11:40:00,
2013-10-14 04:50:00,48.5,29.7,30.05,North,0,0.0,0.0,48,0.00,,,0.00,LWC V2.00 B2112,2013-10-14 11:50:00,
2013-10-14 05:00:00,48.5,29.7,30.05,North,0,0.0,0.0,48,0.00,,,0.00,LWC V2.00 B2112,2013-10-14 12:00:00,
2013-10-14 05:10:00,48.7,30.4,30.05,North,0,0.0,1.0,49,0.00,,,0.00,LWC V2.00 B2112,2013-10-14 12:10:00,
2013-10-14 05:20:00,48.7,30.4,30.05,North,0,0.0,1.0,49,0.00,,,0.00,LWC V2.00 B2112,2013-10-14 12:20:00,
2013-10-14 05:30:00,48.7,30.4,30.05,North,0,0.0,1.0,49,0.00,,,0.00,LWC V2.00 B2112,2013-10-14 12:30:00,
2013-10-14 05:40:00,48.1,29.9,30.06,North,0,0.0,0.0,49,0.00,,,0.00,LWC V2.00 B2112,2013-10-14 12:40:00,
2013-10-14 05:50:00,48.1,29.9,30.06,North,0,0.0,0.0,49,0.00,,,0.00,LWC V2.00 B2112,2013-10-14 12:50:00,
2013-10-14 06:00:00,48.1,29.9,30.06,North,0,0.0,0.0,49,0.00,,,0.00,LWC V2.00 B2112,2013-10-14 13:00:00,
2013-10-14 06:10:00,46.7,29.6,30.06,North,0,0.0,0.0,51,0.00,,,0.00,LWC V2.00 B2112,2013-10-14 13:10:00,
2013-10-14 06:20:00,46.7,29.6,30.06,North,0,0.0,0.0,51,0.00,,,0.00,LWC V2.00 B2112,2013-10-14 13:20:00,
2013-10-14 06:30:00,46.7,29.6,30.06,North,0,0.0,0.0,51,0.00,,,0.00,LWC V2.00 B2112,2013-10-14 13:30:00,
2013-10-14 06:40:00,46.1,29.0,30.06,North,0,0.0,1.0,51,0.00,,,0.00,LWC V2.00 B2112,2013-10-14 13:40:00,
2013-10-14 06:50:00,46.1,29.0,30.06,North,0,0.0,1.0,51,0.00,,,0.00,LWC V2.00 B2112,2013-10-14 13:50:00,
2013-10-14 07:00:00,46.1,29.0,30.06,North,0,0.0,1.0,51,0.00,,,0.00,LWC V2.00 B2112,2013-10-14 14:00:00,
2013-10-14 07:10:00,45.4,29.7,30.07,North,0,0.0,0.0,54,0.00,,,0.00,LWC V2.00 B2112,2013-10-14 14:10:00,
2013-10-14 07:20:00,45.4,29.7,30.07,North,0,0.0,0.0,54,0.00,,,0.00,LWC V2.00 B2112,2013-10-14 14:20:00,
2013-10-14 07:30:00,45.4,29.7,30.07,North,0,0.0,0.0,54,0.00,,,0.00,LWC V2.00 B2112,2013-10-14 14:30:00,
2013-10-14 07:40:00,44.5,30.2,30.07,North,0,0.0,1.0,57,0.00,,,0.00,LWC V2.00 B2112,2013-10-14 14:40:00,
2013-10-14 07:50:00,44.5,30.2,30.07,North,0,0.0,1.0,57,0.00,,,0.00,LWC V2.00 B2112,2013-10-14 14:50:00,
2013-10-14 08:00:00,44.5,30.2,30.07,North,0,0.0,1.0,57,0.00,,,0.00,LWC V2.00 B2112,2013-10-14 15:00:00,
2013-10-14 08:10:00,43.8,30.8,30.08,North,0,0.0,0.0,60,0.00,,,0.00,LWC V2.00 B2112,2013-10-14 15:10:00,
2013-10-14 08:20:00,43.8,30.8,30.08,North,0,0.0,0.0,60,0.00,,,0.00,LWC V2.00 B2112,2013-10-14 15:20:00,
2013-10-14 08:30:00,43.8,30.8,30.08,North,0,0.0,0.0,60,0.00,,,0.00,LWC V2.00 B2112,2013-10-14 15:30:00,
2013-10-14 08:40:00,44.3,31.7,30.09,North,0,0.0,1.0,61,0.00,,,0.00,LWC V2.00 B2112,2013-10-14 15:40:00,
2013-10-14 08:50:00,44.3,31.7,30.09,North,0,0.0,1.0,61,0.00,,,0.00,LWC V2.00 B2112,2013-10-14 15:50:00,
2013-10-14 09:00:00,44.3,31.7,30.09,North,0,0.0,1.0,61,0.00,,,0.00,LWC V2.00 B2112,2013-10-14 16:00:00,
2013-10-14 09:10:00,46.9,33.7,30.10,North,0,0.0,0.0,60,0.00,,,0.00,LWC V2.00 B2112,2013-10-14 16:10:00,
2013-10-14 09:20:00,46.9,33.7,30.10,North,0,0.0,0.0,60,0.00,,,0.00,LWC V2.00 B2112,2013-10-14 16:20:00,
2013-10-14 09:30:00,46.9,33.7,30.10,North,0,0.0,0.0,60,0.00,,,0.00,LWC V2.00 B2112,2013-10-14 16:30:00,
2013-10-14 09:40:00,51.7,36.1,30.10,North,0,0.0,0.0,55,0.00,,,0.00,LWC V2.00 B2112,2013-10-14 16:40:00,
2013-10-14 09:50:00,51.7,36.1,30.10,North,0,0.0,0.0,55,0.00,,,0.00,LWC V2.00 B2112,2013-10-14 16:50:00,
2013-10-14 10:00:00,51.7,36.1,30.10,North,0,0.0,0.0,55,0.00,,,0.00,LWC V2.00 B2112,2013-10-14 17:00:00,
2013-10-14 10:10:00,58.0,37.3,30.10,North,0,0.0,1.0,46,0.00,,,0.00,LWC V2.00 B2112,2013-10-14 17:10:00,
2013-10-14 10:20:00,58.0,37.3,30.10,North,0,0.0,1.0,46,0.00,,,0.00,LWC V2.00 B2112,2013-10-14 17:20:00,
2013-10-14 10:30:00,58.0,37.3,30.10,North,0,0.0,1.0,46,0.00,,,0.00,LWC V2.00 B2112,2013-10-14 17:30:00,
2013-10-14 10:40:00,64.1,35.9,30.10,North,0,0.0,1.0,35,0.00,,,0.00,LWC V2.00 B2112,2013-10-14 17:40:00,
2013-10-14 10:50:00,64.1,35.9,30.10,North,0,0.0,1.0,35,0.00,,,0.00,LWC V2.00 B2112,2013-10-14 17:50:00,
2013-10-14 11:00:00,64.1,35.9,30.10,North,0,0.0,1.0,35,0.00,,,0.00,LWC V2.00 B2112,2013-10-14 18:00:00,
2013-10-14 11:10:00,68.2,36.4,30.10,NNW,338,0.0,3.0,31,0.00,,,0.00,LWC V2.00 B2112,2013-10-14 18:10:00,
2013-10-14 11:20:00,68.2,36.4,30.10,NNW,338,0.0,3.0,31,0.00,,,0.00,LWC V2.00 B2112,2013-10-14 18:20:00,
2013-10-14 11:30:00,68.2,36.4,30.10,NNW,338,0.0,3.0,31,0.00,,,0.00,LWC V2.00 B2112,2013-10-14 18:30:00,
2013-10-14 11:40:00,70.6,37.7,30.09,NNW,338,0.0,4.0,30,0.00,,,0.00,LWC V2.00 B2112,2013-10-14 18:40:00,
2013-10-14 11:50:00,70.6,37.7,30.09,NNW,338,0.0,4.0,30,0.00,,,0.00,LWC V2.00 B2112,2013-10-14 18:50:00,
2013-10-14 12:00:00,70.6,37.7,30.09,NNW,338,0.0,4.0,30,0.00,,,0.00,LWC V2.00 B2112,2013-10-14 19:00:00,
2013-10-14 12:10:00,69.9,37.9,30.08,NNW,338,1.0,6.0,31,0.00,,,0.00,LWC V2.00 B2112,2013-10-14 19:10:00,
2013-10-14 12:20:00,69.9,37.9,30.08,NNW,338,1.0,6.0,31,0.00,,,0.00,LWC V2.00 B2112,2013-10-14 19:20:00,
2013-10-14 12:30:00,69.9,37.9,30.08,NNW,338,1.0,6.0,31,0.00,,,0.00,LWC V2.00 B2112,2013-10-14 19:30:00,
2013-10-14 12:40:00,72.0,37.1,30.08,NW,315,0.0,7.0,28,0.00,,,0.00,LWC V2.00 B2112,2013-10-14 19:40:00,
2013-10-14 12:50:00,72.0,37.1,30.08,NW,315,0.0,7.0,28,0.00,,,0.00,LWC V2.00 B2112,2013-10-14 19:50:00,
2013-10-14 13:00:00,72.0,37.1,30.08,NW,315,0.0,7.0,28,0.00,,,0.00,LWC V2.00 B2112,2013-10-14 20:00:00,
2013-10-14 13:10:00,72.0,37.1,30.06,NNW,338,1.0,7.0,28,0.00,,,0.00,LWC V2.00 B2112,2013-10-14 20:10:00,
2013-10-14 13:20:00,72.0,37.1,30.06,NNW,338,1.0,7.0,28,0.00,,,0.00,LWC V2.00 B2112,2013-10-14 20:20:00,
2013-10-14 13:30:00,72.0,37.1,30.06,NNW,338,1.0,7.0,28,0.00,,,0.00,LWC V2.00 B2112,2013-10-14 20:30:00,
2013-10-14 13:40:00,72.6,38.5,30.05,NW,315,1.0,6.0,29,0.00,,,0.00,LWC V2.00 B2112,2013-10-14 20:40:00,
2013-10-14 13:50:00,72.6,38.5,30.05,NW,315,1.0,6.0,29,0.00,,,0.00,LWC V2.00 B2112,2013-10-14 20:50:00,
2013-10-14 14:00:00,72.6,38.5,30.05,NW,315,1.0,6.0,29,0.00,,,0.00,LWC V2.00 B2112,2013-10-14 21:00:00,
2013-10-14 14:10:00,72.6,38.5,30.04,NW,315,1.0,8.0,29,0.00,,,0.00,LWC V2.00 B2112,2013-10-14 21:10:00,
2013-10-14 14:20:00,72.6,38.5,30.04,NW,315,1.0,8.0,29,0.00,,,0.00,LWC V2.00 B2112,2013-10-14 21:20:00,
2013-10-14 14:30:00,72.6,38.5,30.04,NW,315,1.0,8.0,29,0.00,,,0.00,LWC V2.00 B2112,2013-10-14 21:30:00,
2013-10-14 14:40:00,73.4,40.1,30.03,NW,315,1.0,7.0,30,0.00,,,0.00,LWC V2.00 B2112,2013-10-14 21:40:00,
2013-10-14 14:50:00,73.4,40.1,30.03,NW,315,1.0,7.0,30,0.00,,,0.00,LWC V2.00 B2112,2013-10-14 21:50:00,
2013-10-14 15:00:00,73.4,40.1,30.03,NW,315,1.0,7.0,30,0.00,,,0.00,LWC V2.00 B2112,2013-10-14 22:00:00,
2013-10-14 15:10:00,72.4,40.0,30.02,NW,315,0.0,8.0,31,0.00,,,0.00,LWC V2.00 B2112,2013-10-14 22:10:00,
2013-10-14 15:20:00,72.4,40.0,30.02,NW,315,0.0,8.0,31,0.00,,,0.00,LWC V2.00 B2112,2013-10-14 22:20:00,
2013-10-14 15:30:00,72.4,40.0,30.02,NW,315,0.0,8.0,31,0.00,,,0.00,LWC V2.00 B2112,2013-10-14 22:30:00,
2013-10-14 15:40:00,70.5,40.0,30.02,NW,315,0.0,6.0,33,0.00,,,0.00,LWC V2.00 B2112,2013-10-14 22:40:00,
2013-10-14 15:50:00,70.5,40.0,30.02,NW,315,0.0,6.0,33,0.00,,,0.00,LWC V2.00 B2112,2013-10-14 22:50:00,
2013-10-14 16:00:00,70.5,40.0,30.02,NW,315,0.0,6.0,33,0.00,,,0.00,LWC V2.00 B2112,2013-10-14 23:00:00,
2013-10-14 16:10:00,69.6,40.0,30.01,NW,315,1.0,7.0,34,0.00,,,0.00,LWC V2.00 B2112,2013-10-14 23:10:00,
2013-10-14 16:20:00,69.6,40.0,30.01,NW,315,1.0,7.0,34,0.00,,,0.00,LWC V2.00 B2112,2013-10-14 23:20:00,
2013-10-14 16:30:00,69.6,40.0,30.01,NW,315,1.0,7.0,34,0.00,,,0.00,LWC V2.00 B2112,2013-10-14 23:30:00,
2013-10-14 16:40:00,68.7,39.2,30.00,NW,315,0.0,6.0,34,0.00,,,0.00,LWC V2.00 B2112,2013-10-14 23:40:00,
2013-10-14 16:50:00,68.7,39.2,30.00,NW,315,0.0,6.0,34,0.00,,,0.00,LWC V2.00 B2112,2013-10-14 23:50:00,
2013-10-14 17:00:00,68.7,39.2,30.00,NW,315,0.0,6.0,34,0.00,,,0.00,LWC V2.00 B2112,2013-10-15 00:00:00,
2013-10-14 17:10:00,67.8,39.1,30.00,NNW,338,0.0,4.0,35,0.00,,,0.00,LWC V2.00 B2112,2013-10-15 00:10:00,
2013-10-14 17:20:00,67.8,39.1,30.00,NNW,338,0.0,4.0,35,0.00,,,0.00,LWC V2.00 B2112,2013-10-15 00:20:00,
2013-10-14 17:30:00,68.0,40.0,30.01,NW,315,0.0,2.0,36,0.00,,,0.00,LWC V2.00 B2112,2013-10-15 00:30:00,
2013-10-14 17:40:00,68.0,40.0,30.01,NW,315,0.0,2.0,36,0.00,,,0.00,LWC V2.00 B2112,2013-10-15 00:40:00,
2013-10-14 17:50:00,68.0,40.0,30.01,NW,315,0.0,2.0,36,0.00,,,0.00,LWC V2.00 B2112,2013-10-15 00:50:00,
2013-10-14 18:00:00,65.4,39.8,30.01,WNW,292,0.0,2.0,39,0.00,,,0.00,LWC V2.00 B2112,2013-10-15 01:00:00,
2013-10-14 18:10:00,65.4,39.8,30.01,WNW,292,0.0,2.0,39,0.00,,,0.00,LWC V2.00 B2112,2013-10-15 01:10:00,
2013-10-14 18:20:00,65.4,39.8,30.01,WNW,292,0.0,2.0,39,0.00,,,0.00,LWC V2.00 B2112,2013-10-15 01:20:00,
2013-10-14 18:30:00,61.4,39.3,30.01,WNW,292,0.0,1.0,44,0.00,,,0.00,LWC V2.00 B2112,2013-10-15 01:30:00,
2013-10-14 18:40:00,61.4,39.3,30.01,WNW,292,0.0,1.0,44,0.00,,,0.00,LWC V2.00 B2112,2013-10-15 01:40:00,
2013-10-14 18:50:00,61.4,39.3,30.01,WNW,292,0.0,1.0,44,0.00,,,0.00,LWC V2.00 B2112,2013-10-15 01:50:00,
2013-10-14 19:00:00,56.8,38.4,30.01,WNW,292,0.0,1.0,50,0.00,,,0.00,LWC V2.00 B2112,2013-10-15 02:00:00,
2013-10-14 19:10:00,56.8,38.4,30.01,WNW,292,0.0,1.0,50,0.00,,,0.00,LWC V2.00 B2112,2013-10-15 02:10:00,
2013-10-14 19:20:00,56.8,38.4,30.01,WNW,292,0.0,1.0,50,0.00,,,0.00,LWC V2.00 B2112,2013-10-15 02:20:00,
2013-10-14 19:30:00,54.0,36.8,30.01,WNW,292,0.0,1.0,52,0.00,,,0.00,LWC V2.00 B2112,2013-10-15 02:30:00,
2013-10-14 19:40:00,54.0,36.8,30.01,WNW,292,0.0,1.0,52,0.00,,,0.00,LWC V2.00 B2112,2013-10-15 02:40:00,
2013-10-14 19:50:00,54.0,36.8,30.01,WNW,292,0.0,1.0,52,0.00,,,0.00,LWC V2.00 B2112,2013-10-15 02:50:00,
2013-10-14 20:00:00,52.1,35.5,30.01,WNW,292,0.0,1.0,53,0.00,,,0.00,LWC V2.00 B2112,2013-10-15 03:00:00,
2013-10-14 20:10:00,52.1,35.5,30.01,WNW,292,0.0,1.0,53,0.00,,,0.00,LWC V2.00 B2112,2013-10-15 03:10:00,
2013-10-14 20:20:00,52.1,35.5,30.01,WNW,292,0.0,1.0,53,0.00,,,0.00,LWC V2.00 B2112,2013-10-15 03:20:00,
2013-10-14 20:30:00,50.6,35.0,30.02,WNW,292,0.0,1.0,55,0.00,,,0.00,LWC V2.00 B2112,2013-10-15 03:30:00,
2013-10-14 20:40:00,50.6,35.0,30.02,WNW,292,0.0,1.0,55,0.00,,,0.00,LWC V2.00 B2112,2013-10-15 03:40:00,
2013-10-14 20:50:00,50.6,35.0,30.02,WNW,292,0.0,1.0,55,0.00,,,0.00,LWC V2.00 B2112,2013-10-15 03:50:00,
2013-10-14 21:00:00,49.7,35.1,30.02,WNW,292,0.0,1.0,57,0.00,,,0.00,LWC V2.00 B2112,2013-10-15 04:00:00,
2013-10-14 21:10:00,49.7,35.1,30.02,WNW,292,0.0,1.0,57,0.00,,,0.00,LWC V2.00 B2112,2013-10-15 04:10:00,
2013-10-14 21:20:00,49.7,35.1,30.02,WNW,292,0.0,1.0,57,0.00,,,0.00,LWC V2.00 B2112,2013-10-15 04:20:00,
2013-10-14 21:30:00,48.9,35.2,30.02,WNW,292,0.0,1.0,59,0.00,,,0.00,LWC V2.00 B2112,2013-10-15 04:30:00,
2013-10-14 21:40:00,48.9,35.2,30.02,WNW,292,0.0,1.0,59,0.00,,,0.00,LWC V2.00 B2112,2013-10-15 04:40:00,
2013-10-14 21:50:00,48.9,35.2,30.02,WNW,292,0.0,1.0,59,0.00,,,0.00,LWC V2.00 B2112,2013-10-15 04:50:00,
2013-10-14 22:00:00,48.9,35.6,30.03,South,180,0.0,2.0,60,0.00,,,0.00,LWC V2.00 B2112,2013-10-15 05:00:00,
2013-10-14 22:10:00,48.9,35.6,30.03,South,180,0.0,2.0,60,0.00,,,0.00,LWC V2.00 B2112,2013-10-15 05:10:00,
2013-10-14 22:20:00,48.9,35.6,30.03,South,180,0.0,2.0,60,0.00,,,0.00,LWC V2.00 B2112,2013-10-15 05:20:00,
2013-10-14 22:30:00,48.8,35.5,30.03,South,180,0.0,5.0,60,0.00,,,0.00,LWC V2.00 B2112,2013-10-15 05:30:00,
2013-10-14 22:40:00,48.8,35.5,30.03,South,180,0.0,5.0,60,0.00,,,0.00,LWC V2.00 B2112,2013-10-15 05:40:00,
2013-10-14 22:50:00,48.8,35.5,30.03,South,180,0.0,5.0,60,0.00,,,0.00,LWC V2.00 B2112,2013-10-15 05:50:00,
2013-10-14 23:00:00,47.9,34.7,30.03,South,180,1.0,5.0,60,0.00,,,0.00,LWC V2.00 B2112,2013-10-15 06:00:00,
2013-10-14 23:10:00,47.9,34.7,30.03,South,180,1.0,5.0,60,0.00,,,0.00,LWC V2.00 B2112,2013-10-15 06:10:00,
2013-10-14 23:20:00,47.9,34.7,30.03,South,180,1.0,5.0,60,0.00,,,0.00,LWC V2.00 B2112,2013-10-15 06:20:00,
2013-10-14 23:30:00,47.3,34.1,30.03,South,180,1.0,5.0,60,0.00,,,0.00,LWC V2.00 B2112,2013-10-15 06:30:00,
2013-10-14 23:40:00,47.3,34.1,30.03,South,180,1.0,5.0,60,0.00,,,0.00,LWC V2.00 B2112,2013-10-15 06:40:00,
2013-10-14 23:50:00,47.3,34.1,30.03,South,180,1.0,5.0,60,0.00,,,0.00,LWC V2.00 B2112,2013-10-15 06:50:00,